Terminal Aerodrome Forecast
Issued by NWS

Home | Current Version | Previous Version | Graphics & Text | Print | Product List | Glossary On
Versions: 1 2 3 4 5 6 7 8 9 10 11 12 13 14
907
FTUS43 KICT 200744 AAA
TAFSLN
TAF AMD
KSLN 200744Z 2008/2106 15010KT 5SM BR VCSH SCT009 BKN012
      TEMPO 2008/2012 4SM BR SCT006 BKN009
     FM201200 19013KT P6SM SCT009 BKN100
     FM201500 20015G22KT P6SM SCT100 BKN250
     FM202200 34017G25KT P6SM SCT250=

USA.gov is the U.S. government's official web portal to all federal, state and local government web resources and services.